Flight Track Log - Related Links

Times and Time Zones

All times are in EDT time to prevent confusion due to time zone crossing. See the SWA771 flight status page for this flight to view local times or setup timezone preferences in your user account.


Time Position Orientation Groundspeed Altitude Reporting Facility
EDT Latitude Longitude Course Direction KTS MPH feet Rate Location/Type
Sat 11:38:02 PM 32.7444 -117.2328 90° East 183 211 1,800  Level Los Angeles Center
Sat 11:39:04 PM 32.7553 -117.3047 280° West 210 242 4,300 2,439 Climbing Los Angeles Center
Sat 11:40:05 PM 32.6942 -117.3186 191° South 247 284 6,800 2,585 Climbing Los Angeles Center
Sat 11:41:07 PM 32.6625 -117.2161 110° East 273 314 9,600 2,244 Climbing Los Angeles Center
Sat 11:42:08 PM 32.6392 -117.1192 106° East 297 342 11,400 1,902 Climbing Los Angeles Center
Sat 11:43:00 PM 32.6167 -116.7683 90° East  Level FlightAware Approximate
Sat 11:43:10 PM 32.6175 -117.0097 103° East 331 381 13,500  Level Los Angeles Center
Sat 11:44:11 PM 32.6183 -116.8925 89° East 358 412 15,500 1,967 Climbing Los Angeles Center
Sat 11:45:12 PM 32.6314 -116.7700 83° East 371 427 17,500 2,000 Climbing Los Angeles Center
Sat 11:46:14 PM 32.6433 -116.6453 83° East 377 434 19,600 1,854 Climbing Los Angeles Center
Sat 11:47:15 PM 32.6561 -116.5161 83° East 393 452 21,300 1,533 Climbing Los Angeles Center
Sat 11:49:18 PM 32.6836 -116.2172 84° East 427 491 24,300 1,427 Climbing Los Angeles Center
Sat 11:50:20 PM 32.6969 -116.0750 84° East 436 502 25,700 1,366 Climbing Los Angeles Center
Sat 11:51:21 PM 32.7103 -115.9300 84° East 443 510 27,100 1,377 Climbing Los Angeles Center
Sat 11:52:22 PM 32.7239 -115.7847 84° East 444 511 28,500 1,317 Climbing Los Angeles Center
Sat 11:53:24 PM 32.7369 -115.6389 84° East 445 512 29,800 1,220 Climbing Los Angeles Center
Sat 11:54:25 PM 32.7508 -115.4636 85° East 446 513 31,000 1,082 Climbing Los Angeles Center
Sat 11:55:26 PM 32.7536 -115.3147 89° East 451 519 32,000 976 Climbing Los Angeles Center
Sat 11:56:28 PM 32.7603 -115.1636 87° East 458 527 33,000 1,024 Climbing Los Angeles Center
Sat 11:57:29 PM 32.7619 -115.0150 89° East 453 521 34,100 976 Climbing Los Angeles Center
Sat 11:58:31 PM 32.7650 -114.8694 89° East 444 511 35,000 439 Climbing Los Angeles Center
Sat 11:59:32 PM 32.7681 -114.7219 89° East 449 517 35,000 -148 Level Los Angeles Center
Sun 12:00:33 AM 32.7697 -114.5719 89° East 455 524 34,700 -1,707 Descending Los Angeles Center
Sun 12:01:35 AM 32.7728 -114.4217 89° East 458 527 31,500 -3,122 Descending Los Angeles Center
Sun 12:02:36 AM 32.7750 -114.2731 89° East 452 520 28,300 -3,000 Descending Los Angeles Center
Sun 12:03:37 AM 32.7767 -114.1014 89° East 435 501 25,400 -1,623 Descending Los Angeles Center
Sun 12:04:38 AM 32.8017 -113.9694 77° East 433 498 25,000 -195 Descending Los Angeles Center
Sun 12:05:40 AM 32.8533 -113.8436 64° Northeast 428 493 25,000 49 Level Los Angeles Center
Sun 12:06:41 AM 32.9083 -113.7119 64° Northeast 440 506 25,100  Climbing Los Angeles Center
Sun 12:07:42 AM 32.9669 -113.5739 63° Northeast 469 540 25,000 -48 Descending Los Angeles Center
Sun 12:08:46 AM 33.0311 -113.4189 64° Northeast 459 528 25,000 -384 Level Albuquerque Center
Sun 12:09:47 AM 33.0867 -113.2878 63° Northeast 449 517 24,200 -1,855 Descending Albuquerque Center
Sun 12:11:18 AM 33.1667 -113.0833 65° Northeast 446 513 20,300 -2,628 Descending Phoenix TRACON
Sun 12:11:48 AM 33.1969 -113.0244 58° Northeast 444 511 18,900 -2,637 Descending Albuquerque Center
Sun 12:12:49 AM 33.2467 -112.9022 64° Northeast 431 496 16,300 -1,115 Descending Albuquerque Center
Sun 12:14:24 AM 33.2833 -112.7333 75° East 330 380 16,000 -426 Descending Phoenix TRACON
Sun 12:15:24 AM 33.2833 -112.6167 90° East 334 384 15,200 -1,381 Descending Phoenix TRACON
Sun 12:16:30 AM 33.2833 -112.5000 90° East 330 380 13,100 -1,762 Descending Phoenix TRACON
Sun 12:17:30 AM 33.2833 -112.3833 90° East 315 362 11,500 -1,041 Descending Phoenix TRACON
Sun 12:18:31 AM 33.3000 -112.2833 79° East 297 342 11,000 -793 Descending Phoenix TRACON
Sun 12:19:31 AM 33.3000 -112.2000 90° East 290 334 9,900 -1,000 Descending Phoenix TRACON
Sun 12:20:31 AM 33.3167 -112.1000 79° East 270 311 9,000 -850 Descending Phoenix TRACON
Sun 12:21:31 AM 33.3333 -112.0167 77° East 248 285 8,200 -1,050 Descending Phoenix TRACON
Sun 12:22:31 AM 33.3500 -111.9333 77° East 251 289 6,900 -1,200 Descending Phoenix TRACON
Sun 12:23:31 AM 33.3500 -111.8667 90° East 241 277 5,800 -1,250 Descending Phoenix TRACON
Sun 12:24:31 AM 33.3833 -111.8167 51° Northeast 231 266 4,400 -1,238 Descending Phoenix TRACON
Sun 12:25:37 AM 33.4167 -111.8667 309° West 221 254 3,200 -950 Descending Phoenix TRACON
Sun 12:26:31 AM 33.4333 -111.9167 292° West 185 213 2,500 -895 Descending Phoenix TRACON
Sun 12:27:31 AM 33.4333 -111.9667 270° West 148 170 1,500 -1,000 Descending Phoenix TRACON

Login

Don't have an account? Register now (free) for customized features, flight alerts, and more!